Time;durP1;ratioP1;P1;durP2;ratioP2;P2;SDS_P1;SDS_P2;PMS_P1;PMS_P2;Temp;Humidity;BMP_temperature;BMP_pressure;BME280_temperature;BME280_humidity;BME280_pressure;Samples;Min_cycle;Max_cycle;Signal;HPM_P1;HPM_P2
2022/12/25 00:01:31;;;;;;;;;;;;;;;9.43;72.32;101457.53;5042422;28;20314;-82
2022/12/25 00:03:56;;;;;;;;;;;;;;;9.45;72.24;101462.06;5037422;28;19961;-82
2022/12/25 00:06:21;;;;;;;;;;;;;;;9.35;72.75;101463.09;5039061;28;20023;-83
2022/12/25 00:08:47;;;;;;;;;;;;;;;9.38;72.62;101460.72;5037829;28;20344;-83
2022/12/25 00:11:16;;;;;;;;;;;;;;;9.30;72.89;101461.88;5037199;28;20357;-83
2022/12/25 00:13:41;;;;;;;;;;;;;;;9.36;72.55;101461.44;5041206;28;19913;-83
2022/12/25 00:16:08;;;;;;;;;;;;;;;9.33;72.72;101463.81;5048183;28;19967;-83
2022/12/25 00:18:33;;;;;;;;;;;;;;;9.40;72.41;101463.44;5037392;28;19916;-83
2022/12/25 00:20:59;;;;;;;;;;;;;;;9.30;72.94;101466.22;5050153;28;19920;-83
2022/12/25 00:23:25;;;;;;;;;;;;;;;9.30;72.90;101461.88;5046752;28;20297;-82
2022/12/25 00:25:51;;;;;;;;;;;;;;;9.32;72.97;101472.44;5027800;28;20420;-83
2022/12/25 00:28:16;;;;;;;;;;;;;;;9.37;72.44;101477.16;5040534;28;19960;-82
2022/12/25 00:30:42;;;;;;;;;;;;;;;9.37;72.44;101468.44;5046156;28;19921;-83
2022/12/25 00:33:07;;;;;;;;;;;;;;;9.37;72.26;101477.16;5046209;28;19912;-83
2022/12/25 00:35:33;;;;;;;;;;;;;;;9.33;72.61;101482.97;5043777;28;19974;-81
2022/12/25 00:37:58;;;;;;;;;;;;;;;9.37;72.47;101494.50;5039070;28;20379;-82
2022/12/25 00:40:24;;;;;;;;;;;;;;;9.38;72.62;101492.00;5037837;28;20442;-84
2022/12/25 00:42:49;;;;;;;;;;;;;;;9.38;72.25;101493.72;5041830;28;20416;-84
2022/12/25 00:45:15;;;;;;;;;;;;;;;9.36;72.54;101495.31;5042631;28;20405;-84
2022/12/25 00:47:40;;;;;;;;;;;;;;;9.25;72.71;101496.22;5047042;28;19912;-83
2022/12/25 00:50:06;;;;;;;;;;;;;;;9.37;72.77;101487.56;5047420;28;20305;-83
2022/12/25 00:52:31;;;;;;;;;;;;;;;9.39;72.40;101485.09;5046671;28;20314;-83
2022/12/25 00:54:57;;;;;;;;;;;;;;;9.36;72.70;101491.00;5038696;28;19913;-83
2022/12/25 00:57:22;;;;;;;;;;;;;;;9.37;72.59;101487.56;5050204;28;20438;-83
2022/12/25 00:59:48;;;;;;;;;;;;;;;9.40;72.59;101488.59;5050858;28;19960;-82
2022/12/25 01:02:22;;;;;;;;;;;;;;;9.35;72.44;101489.16;5050659;28;20378;-83
2022/12/25 01:04:48;;;;;;;;;;;;;;;9.43;72.39;101491.44;5048739;28;19999;-83
2022/12/25 01:07:15;;;;;;;;;;;;;;;9.48;72.40;101483.16;5049551;28;19959;-83
2022/12/25 01:12:25;;;;;;;;;;;;;;;9.41;72.54;101493.03;5040727;28;19927;-83
2022/12/25 01:14:51;;;;;;;;;;;;;;;9.44;72.29;101493.22;5047889;28;19913;-83
2022/12/25 01:17:16;;;;;;;;;;;;;;;9.43;72.48;101494.03;5047646;28;19952;-83
2022/12/25 01:19:41;;;;;;;;;;;;;;;9.39;72.35;101503.34;5041016;28;19948;-83
2022/12/25 01:22:07;;;;;;;;;;;;;;;9.38;72.70;101507.66;5035152;28;20361;-83
2022/12/25 01:24:32;;;;;;;;;;;;;;;9.46;72.24;101509.88;5038490;28;20545;-84
2022/12/25 01:27:00;;;;;;;;;;;;;;;9.50;72.03;101515.44;5045252;28;20382;-83
2022/12/25 01:29:35;;;;;;;;;;;;;;;9.44;72.48;101516.69;5049122;28;20007;-83
2022/12/25 01:32:01;;;;;;;;;;;;;;;9.42;72.53;101518.28;5021599;28;19925;-83
2022/12/25 01:34:29;;;;;;;;;;;;;;;9.45;72.16;101519.41;5048034;28;19923;-83
2022/12/25 01:36:58;;;;;;;;;;;;;;;9.41;72.54;101519.09;5043373;28;19948;-83
2022/12/25 01:39:29;;;;;;;;;;;;;;;9.51;72.11;101522.44;5043915;28;19928;-83
2022/12/25 01:41:55;;;;;;;;;;;;;;;9.53;71.96;101525.19;5038506;28;19917;-83
2022/12/25 01:44:42;;;;;;;;;;;;;;;9.48;72.03;101529.13;5039328;28;19912;-83
2022/12/25 01:47:11;;;;;;;;;;;;;;;9.55;71.83;101520.97;5042015;28;19913;-82
2022/12/25 01:49:37;;;;;;;;;;;;;;;9.52;71.90;101516.41;5042512;28;19921;-83
2022/12/25 01:55:15;;;;;;;;;;;;;;;9.43;72.40;101515.78;5036818;28;20412;-83
2022/12/25 01:57:40;;;;;;;;;;;;;;;9.55;72.15;101518.38;5029588;28;19916;-83
2022/12/25 02:00:06;;;;;;;;;;;;;;;9.48;72.01;101513.50;5040020;28;20011;-82
2022/12/25 02:02:32;;;;;;;;;;;;;;;9.47;72.28;101514.31;5030462;28;19935;-83
2022/12/25 02:04:59;;;;;;;;;;;;;;;9.40;72.52;101518.19;5048653;28;19999;-83
2022/12/25 02:07:25;;;;;;;;;;;;;;;9.43;72.48;101509.69;5047109;28;20337;-83
2022/12/25 02:09:50;;;;;;;;;;;;;;;9.43;72.66;101514.88;5043226;28;19917;-83
2022/12/25 02:12:20;;;;;;;;;;;;;;;9.44;72.25;101516.69;5025128;28;19928;-83
2022/12/25 02:14:45;;;;;;;;;;;;;;;9.47;72.50;101511.72;5038654;28;20349;-83
2022/12/25 02:17:13;;;;;;;;;;;;;;;9.47;72.12;101509.09;5042538;28;20046;-83
2022/12/25 02:19:51;;;;;;;;;;;;;;;9.46;71.99;101518.63;5036765;28;19960;-83
2022/12/25 02:22:16;;;;;;;;;;;;;;;9.42;71.99;101526.09;5034504;28;19970;-83
2022/12/25 02:24:54;;;;;;;;;;;;;;;9.42;72.21;101532.25;5048394;28;20004;-83
2022/12/25 02:27:38;;;;;;;;;;;;;;;9.52;71.87;101523.34;5042553;28;20429;-83
2022/12/25 02:30:05;;;;;;;;;;;;;;;9.48;72.11;101536.97;5039117;28;19924;-83
2022/12/25 02:32:42;;;;;;;;;;;;;;;9.47;71.95;101543.00;5038098;28;20044;-84
2022/12/25 02:35:12;;;;;;;;;;;;;;;9.57;71.75;101540.25;5040534;28;20413;-84
2022/12/25 02:37:38;;;;;;;;;;;;;;;9.47;72.10;101546.50;5035512;28;19917;-84
2022/12/25 02:40:24;;;;;;;;;;;;;;;9.45;72.23;101541.97;5038206;28;19983;-84
2022/12/25 03:07:40;;;;;;;;;;;;;;;9.51;71.98;101564.16;5048324;28;19970;-83
2022/12/25 03:12:50;;;;;;;;;;;;;;;9.52;72.04;101567.66;5043846;28;19919;-83
2022/12/25 03:18:01;;;;;;;;;;;;;;;9.37;72.65;101570.09;5039735;28;19920;-84
2022/12/25 03:28:38;;;;;;;;;;;;;;;9.53;71.78;101580.81;5044521;28;19924;-83
2022/12/25 03:31:24;;;;;;;;;;;;;;;9.53;72.02;101582.53;5044649;28;19920;-83
2022/12/25 03:35:21;;;;;;;;;;;;;;;9.46;72.22;101585.47;5042195;28;19948;-83
2022/12/25 03:36:52;;;;;;;;;;;;;;;9.45;72.67;101592.41;5039186;28;20003;-83
2022/12/25 03:42:48;;;;;;;;;;;;;;;9.53;72.08;101591.25;5036487;28;19924;-83
2022/12/25 04:37:10;;;;;;;;;;;;;;;9.46;72.46;101643.78;5036465;28;19920;-84
2022/12/25 04:39:36;;;;;;;;;;;;;;;9.45;72.42;101644.53;5050295;28;19925;-83
2022/12/25 04:42:01;;;;;;;;;;;;;;;9.41;72.14;101654.66;5048057;28;20306;-84
2022/12/25 04:44:27;;;;;;;;;;;;;;;9.45;72.24;101665.41;5040299;28;19917;-84
2022/12/25 04:46:52;;;;;;;;;;;;;;;9.44;72.57;101663.59;5046216;28;19913;-83
2022/12/25 04:49:17;;;;;;;;;;;;;;;9.42;72.06;101672.09;5028525;28;19939;-84
2022/12/25 04:51:43;;;;;;;;;;;;;;;9.45;72.54;101664.50;5045708;28;19951;-83
2022/12/25 04:54:08;;;;;;;;;;;;;;;9.49;72.38;101676.97;5046923;28;20445;-84
2022/12/25 04:56:34;;;;;;;;;;;;;;;9.44;72.40;101676.66;5046112;28;20421;-84
2022/12/25 04:58:59;;;;;;;;;;;;;;;9.36;72.42;101678.69;5041577;28;20314;-83
2022/12/25 05:01:25;;;;;;;;;;;;;;;9.40;72.92;101684.09;5051890;28;20298;-84
2022/12/25 05:03:50;;;;;;;;;;;;;;;9.38;72.86;101679.69;5051031;28;20693;-83
2022/12/25 05:06:16;;;;;;;;;;;;;;;9.35;72.59;101687.28;5029434;28;20314;-83
2022/12/25 05:08:41;;;;;;;;;;;;;;;9.38;72.78;101681.41;5049870;28;20012;-84
2022/12/25 05:11:08;;;;;;;;;;;;;;;9.43;72.64;101692.16;5043782;28;19913;-83
2022/12/25 05:13:34;;;;;;;;;;;;;;;9.48;72.40;101685.56;5043997;28;19920;-85
2022/12/25 05:15:59;;;;;;;;;;;;;;;9.53;72.22;101690.34;5040046;28;19913;-85
2022/12/25 05:18:24;;;;;;;;;;;;;;;9.49;72.24;101696.13;5039854;28;19978;-85
2022/12/25 05:20:51;;;;;;;;;;;;;;;9.47;72.37;101696.81;5038538;28;20314;-84
2022/12/25 05:23:16;;;;;;;;;;;;;;;9.49;72.41;101698.72;5036372;28;19920;-85
2022/12/25 05:25:42;;;;;;;;;;;;;;;9.49;72.47;101705.66;5039546;28;19917;-82
2022/12/25 05:28:08;;;;;;;;;;;;;;;9.51;72.45;101704.97;5040754;28;20448;-82
2022/12/25 05:30:34;;;;;;;;;;;;;;;9.52;72.13;101711.97;5031709;28;19919;-83
2022/12/25 05:32:59;;;;;;;;;;;;;;;9.48;72.53;101709.97;5041792;28;20003;-84
2022/12/25 05:35:25;;;;;;;;;;;;;;;9.51;72.41;101717.09;5048299;28;19920;-82
2022/12/25 05:37:50;;;;;;;;;;;;;;;9.45;72.48;101721.88;5050584;28;19919;-83
2022/12/25 05:40:15;;;;;;;;;;;;;;;9.50;72.46;101731.84;5047588;28;20398;-83
2022/12/25 05:42:41;;;;;;;;;;;;;;;9.47;72.35;101728.09;5045697;28;20405;-83
2022/12/25 05:45:06;;;;;;;;;;;;;;;9.43;72.42;101733.88;5049886;28;19923;-83
2022/12/25 05:47:32;;;;;;;;;;;;;;;9.42;72.68;101738.19;5053015;28;19913;-83
2022/12/25 05:49:57;;;;;;;;;;;;;;;9.45;72.48;101734.91;5052954;28;19928;-84
2022/12/25 05:52:23;;;;;;;;;;;;;;;9.47;72.63;101730.72;5044020;28;20370;-83
2022/12/25 05:54:48;;;;;;;;;;;;;;;9.48;72.51;101738.66;5039988;28;20377;-83
2022/12/25 05:57:13;;;;;;;;;;;;;;;9.50;72.61;101741.34;5039663;28;20333;-83
2022/12/25 05:59:39;;;;;;;;;;;;;;;9.48;72.29;101750.75;5040203;28;19917;-83
2022/12/25 06:02:04;;;;;;;;;;;;;;;9.51;72.31;101748.38;5031323;28;19921;-83
2022/12/25 06:04:30;;;;;;;;;;;;;;;9.48;72.67;101736.03;5031368;28;20497;-83
2022/12/25 06:06:55;;;;;;;;;;;;;;;9.54;72.42;101744.28;5038892;28;19916;-84
2022/12/25 06:09:23;;;;;;;;;;;;;;;9.54;72.30;101735.56;5049173;28;20035;-83
2022/12/25 06:11:49;;;;;;;;;;;;;;;9.53;72.56;101744.19;5042019;28;19923;-83
2022/12/25 06:14:15;;;;;;;;;;;;;;;9.52;72.24;101744.97;5033064;28;20000;-83
2022/12/25 06:16:40;;;;;;;;;;;;;;;9.55;72.45;101750.44;5044763;28;19914;-84
2022/12/25 06:19:06;;;;;;;;;;;;;;;9.51;72.58;101758.81;5039410;28;19924;-84
2022/12/25 06:21:31;;;;;;;;;;;;;;;9.55;72.14;101763.47;5032254;28;20294;-84
2022/12/25 06:23:58;;;;;;;;;;;;;;;9.54;72.18;101761.63;5034561;28;19921;-84
2022/12/25 06:26:24;;;;;;;;;;;;;;;9.53;72.17;101771.16;5047027;28;20379;-84
2022/12/25 06:28:49;;;;;;;;;;;;;;;9.50;72.49;101786.59;5031856;28;19921;-83
2022/12/25 06:31:16;;;;;;;;;;;;;;;9.49;72.72;101786.47;5036215;28;20386;-83
2022/12/25 06:33:42;;;;;;;;;;;;;;;9.50;72.62;101791.81;5044112;28;19916;-83
2022/12/25 06:36:11;;;;;;;;;;;;;;;9.49;72.38;101791.69;5031234;28;20371;-83
2022/12/25 06:38:37;;;;;;;;;;;;;;;9.49;72.47;101794.31;5019266;28;19921;-84
2022/12/25 06:41:07;;;;;;;;;;;;;;;9.50;72.30;101789.22;5047082;28;19924;-83
2022/12/25 06:43:33;;;;;;;;;;;;;;;9.51;72.11;101798.84;5049085;28;19931;-84
2022/12/25 06:46:05;;;;;;;;;;;;;;;9.52;72.45;101795.41;5039492;28;19920;-86
2022/12/25 06:48:36;;;;;;;;;;;;;;;9.52;72.44;101799.72;5043048;28;19917;-84
2022/12/25 06:51:02;;;;;;;;;;;;;;;9.55;72.12;101806.09;5043965;28;19913;-84
2022/12/25 06:53:27;;;;;;;;;;;;;;;9.55;72.16;101813.00;5037769;28;20401;-84
2022/12/25 06:55:53;;;;;;;;;;;;;;;9.53;72.50;101806.78;5036362;28;20011;-85
2022/12/25 06:58:18;;;;;;;;;;;;;;;9.53;72.12;101807.69;5040884;28;19912;-85
2022/12/25 07:00:44;;;;;;;;;;;;;;;9.54;72.12;101812.09;5048153;28;19990;-84
2022/12/25 07:03:10;;;;;;;;;;;;;;;9.55;72.06;101808.69;5051159;28;20389;-85
2022/12/25 07:05:36;;;;;;;;;;;;;;;9.58;72.14;101813.22;5051325;28;20735;-86
2022/12/25 07:08:01;;;;;;;;;;;;;;;9.59;71.90;101817.66;5046573;28;19925;-85
2022/12/25 07:10:27;;;;;;;;;;;;;;;9.56;72.17;101826.16;5048950;28;19940;-85
2022/12/25 07:12:52;;;;;;;;;;;;;;;9.55;72.12;101828.66;5046587;28;20374;-85
2022/12/25 07:15:18;;;;;;;;;;;;;;;9.55;72.04;101840.00;5049568;28;20333;-86
2022/12/25 07:17:43;;;;;;;;;;;;;;;9.54;72.06;101835.56;5037204;28;19976;-86
2022/12/25 07:20:09;;;;;;;;;;;;;;;9.54;72.22;101835.56;5048178;28;20333;-84
2022/12/25 07:22:34;;;;;;;;;;;;;;;9.51;72.13;101837.94;5041396;28;19928;-85
2022/12/25 07:25:00;;;;;;;;;;;;;;;9.47;72.10;101842.81;5047794;28;19924;-85
2022/12/25 07:27:25;;;;;;;;;;;;;;;9.48;72.26;101847.22;5041373;28;20425;-84
2022/12/25 07:29:51;;;;;;;;;;;;;;;9.48;72.32;101845.53;5040631;28;20390;-85
2022/12/25 07:32:16;;;;;;;;;;;;;;;9.48;72.36;101855.03;5038488;28;19913;-83
2022/12/25 07:34:41;;;;;;;;;;;;;;;9.50;72.36;101861.28;5052645;28;20357;-85
2022/12/25 07:37:07;;;;;;;;;;;;;;;9.48;72.56;101866.41;5047615;28;19944;-83
2022/12/25 07:39:34;;;;;;;;;;;;;;;9.52;72.40;101868.44;5051034;28;19983;-85
2022/12/25 07:41:59;;;;;;;;;;;;;;;9.53;72.19;101867.66;5042983;28;19965;-87
2022/12/25 07:44:25;;;;;;;;;;;;;;;9.49;72.07;101865.59;5035699;28;19912;-85
2022/12/25 07:46:50;;;;;;;;;;;;;;;9.48;72.28;101873.28;5050832;28;20384;-85
2022/12/25 07:49:15;;;;;;;;;;;;;;;9.51;71.76;101873.56;5042787;28;20295;-84
2022/12/25 07:51:41;;;;;;;;;;;;;;;9.51;72.27;101863.13;5047022;28;20732;-86
2022/12/25 07:54:07;;;;;;;;;;;;;;;9.51;72.21;101870.94;5043633;28;20088;-85
2022/12/25 07:56:32;;;;;;;;;;;;;;;9.52;72.35;101875.34;5035377;28;19920;-86
2022/12/25 07:58:57;;;;;;;;;;;;;;;9.51;71.96;101876.16;5035588;28;19917;-84
2022/12/25 08:01:23;;;;;;;;;;;;;;;9.47;71.82;101882.81;5046741;28;20318;-84
2022/12/25 08:03:49;;;;;;;;;;;;;;;9.52;72.37;101888.38;5031336;28;20412;-81
2022/12/25 08:06:15;;;;;;;;;;;;;;;9.48;72.64;101884.66;5045639;28;20362;-83
2022/12/25 08:08:41;;;;;;;;;;;;;;;9.50;71.75;101882.16;5043522;28;19917;-82
2022/12/25 08:11:07;;;;;;;;;;;;;;;9.44;72.18;101887.81;5047559;28;19990;-84
2022/12/25 08:13:32;;;;;;;;;;;;;;;9.41;72.44;101884.97;5048176;28;19952;-84
2022/12/25 08:16:02;;;;;;;;;;;;;;;9.35;72.30;101884.50;5046204;28;19959;-84
2022/12/25 08:18:30;;;;;;;;;;;;;;;9.40;72.61;101883.16;5041861;28;19924;-85
2022/12/25 08:20:56;;;;;;;;;;;;;;;9.48;72.62;101879.44;5033911;28;19967;-83
2022/12/25 08:23:21;;;;;;;;;;;;;;;9.49;72.18;101886.47;5041463;28;20356;-84
2022/12/25 08:25:47;;;;;;;;;;;;;;;9.50;72.70;101880.47;5051780;28;19946;-82
2022/12/25 08:28:12;;;;;;;;;;;;;;;9.52;72.06;101883.16;5041405;28;19917;-82
2022/12/25 08:30:38;;;;;;;;;;;;;;;9.47;71.87;101880.22;5051171;28;20286;-83
2022/12/25 08:33:04;;;;;;;;;;;;;;;9.49;71.82;101877.75;5049520;28;19913;-84
2022/12/25 08:35:32;;;;;;;;;;;;;;;9.49;72.19;101877.75;5045479;28;20393;-85
2022/12/25 08:37:57;;;;;;;;;;;;;;;9.52;72.44;101889.28;5047198;28;19917;-85
2022/12/25 08:40:22;;;;;;;;;;;;;;;9.51;72.31;101887.50;5024978;28;19928;-89
2022/12/25 08:42:48;;;;;;;;;;;;;;;9.54;72.10;101885.09;5036923;28;20488;-89
2022/12/25 08:45:13;;;;;;;;;;;;;;;9.56;71.67;101896.56;5044189;28;20401;-82
2022/12/25 08:47:39;;;;;;;;;;;;;;;9.57;72.01;101905.31;5050779;28;20329;-85
2022/12/25 08:50:05;;;;;;;;;;;;;;;9.55;71.66;101910.41;5048655;28;19924;-85
2022/12/25 08:52:30;;;;;;;;;;;;;;;9.52;72.06;101906.63;5045608;28;20410;-84
2022/12/25 08:54:55;;;;;;;;;;;;;;;9.56;72.09;101904.38;5045998;28;19917;-85
2022/12/25 08:57:21;;;;;;;;;;;;;;;9.52;71.62;101904.03;5045781;28;20415;-84
2022/12/25 08:59:46;;;;;;;;;;;;;;;9.48;71.64;101901.97;5044090;28;19916;-84
2022/12/25 09:02:12;;;;;;;;;;;;;;;9.45;71.84;101899.16;5050035;28;19916;-84
2022/12/25 09:04:37;;;;;;;;;;;;;;;9.49;71.88;101899.50;5048834;28;19927;-85
2022/12/25 09:07:03;;;;;;;;;;;;;;;9.55;71.61;101904.28;5049299;28;20003;-85
2022/12/25 09:09:28;;;;;;;;;;;;;;;9.60;71.66;101895.09;5044724;28;20429;-83
2022/12/25 09:11:54;;;;;;;;;;;;;;;9.59;71.90;101898.50;5047512;28;20003;-84
2022/12/25 09:14:19;;;;;;;;;;;;;;;9.56;71.65;101904.38;5039196;28;19925;-84
2022/12/25 09:16:45;;;;;;;;;;;;;;;9.54;71.63;101903.34;5035646;28;20340;-84
2022/12/25 09:19:10;;;;;;;;;;;;;;;9.58;71.95;101904.50;5038032;28;19921;-84
2022/12/25 09:21:35;;;;;;;;;;;;;;;9.63;71.62;101920.50;5033423;28;20314;-84
2022/12/25 09:24:02;;;;;;;;;;;;;;;9.61;71.71;101911.66;5040343;28;20310;-84
2022/12/25 09:26:27;;;;;;;;;;;;;;;9.64;71.68;101910.19;5045043;28;20015;-84
2022/12/25 09:28:53;;;;;;;;;;;;;;;9.65;71.39;101903.25;5038854;28;20032;-84
2022/12/25 09:31:19;;;;;;;;;;;;;;;9.58;71.26;101896.69;5045043;28;19917;-84
2022/12/25 09:33:44;;;;;;;;;;;;;;;9.66;71.69;101902.50;5046190;28;19917;-85
2022/12/25 09:36:10;;;;;;;;;;;;;;;9.68;71.10;101901.81;5045112;28;19974;-84
2022/12/25 09:38:35;;;;;;;;;;;;;;;9.66;71.30;101902.50;5044304;28;20391;-85
2022/12/25 09:41:07;;;;;;;;;;;;;;;9.73;71.01;101902.16;5040812;28;19921;-85
2022/12/25 09:43:33;;;;;;;;;;;;;;;9.69;70.98;101903.59;5043852;28;19931;-84
2022/12/25 09:45:58;;;;;;;;;;;;;;;9.66;71.13;101900.78;5047961;28;19974;-86
2022/12/25 09:48:24;;;;;;;;;;;;;;;9.64;70.96;101899.75;5047666;28;20021;-84
2022/12/25 09:50:51;;;;;;;;;;;;;;;9.66;71.11;101899.88;5043563;28;20295;-86
2022/12/25 09:53:20;;;;;;;;;;;;;;;9.74;71.31;101910.09;5038654;28;19917;-85
2022/12/25 09:55:52;;;;;;;;;;;;;;;9.78;70.85;101911.25;5050129;28;19916;-86
2022/12/25 09:58:17;;;;;;;;;;;;;;;9.78;70.96;101917.38;5034750;28;20409;-85
2022/12/25 10:00:46;;;;;;;;;;;;;;;9.85;70.98;101923.03;5035500;28;19917;-85
2022/12/25 10:03:11;;;;;;;;;;;;;;;9.79;70.59;101911.34;5037694;28;19917;-85
2022/12/25 10:05:43;;;;;;;;;;;;;;;9.73;70.92;101913.47;5037564;28;19943;-85
2022/12/25 10:08:27;;;;;;;;;;;;;;;9.65;71.14;101912.03;5045619;28;19932;-85
2022/12/25 10:10:58;;;;;;;;;;;;;;;9.69;70.91;101908.81;5039526;28;19917;-85
2022/12/25 10:13:33;;;;;;;;;;;;;;;9.67;71.39;101907.81;5039382;28;20459;-85
2022/12/25 10:16:08;;;;;;;;;;;;;;;9.71;71.47;101906.34;5040407;28;20340;-86
2022/12/25 10:18:34;;;;;;;;;;;;;;;9.71;71.11;101902.03;5038002;28;20007;-84
2022/12/25 10:21:00;;;;;;;;;;;;;;;9.74;71.18;101902.28;5037134;28;20022;-85
2022/12/25 10:23:28;;;;;;;;;;;;;;;9.75;70.71;101901.47;5031786;28;19913;-85
2022/12/25 10:25:54;;;;;;;;;;;;;;;9.73;71.17;101902.16;5029556;28;19919;-85
2022/12/25 10:28:34;;;;;;;;;;;;;;;9.74;70.90;101903.97;5042678;28;20007;-86
2022/12/25 10:31:00;;;;;;;;;;;;;;;9.81;71.07;101914.06;5020916;28;20386;-86
2022/12/25 10:33:26;;;;;;;;;;;;;;;9.86;70.44;101904.88;5043372;28;19913;-86
2022/12/25 10:35:51;;;;;;;;;;;;;;;9.85;70.44;101908.28;5045462;28;19920;-86
2022/12/25 10:38:17;;;;;;;;;;;;;;;9.81;70.47;101902.75;5040308;28;20366;-86
2022/12/25 10:40:55;;;;;;;;;;;;;;;9.82;70.57;101907.16;5041441;28;19928;-86
2022/12/25 10:43:44;;;;;;;;;;;;;;;9.82;70.60;101900.25;5027050;28;20374;-84
2022/12/25 10:46:10;;;;;;;;;;;;;;;9.83;70.69;101903.75;5039715;28;19975;-85
2022/12/25 10:48:40;;;;;;;;;;;;;;;9.79;70.67;101903.50;5041246;28;20261;-86
2022/12/25 10:51:05;;;;;;;;;;;;;;;9.89;70.67;101907.72;5043819;28;19916;-85
2022/12/25 10:53:36;;;;;;;;;;;;;;;9.82;70.73;101908.06;5038046;28;19917;-85
2022/12/25 10:56:02;;;;;;;;;;;;;;;9.93;70.87;101901.94;5039305;28;19920;-85
2022/12/25 10:58:28;;;;;;;;;;;;;;;9.91;70.33;101902.63;5041276;28;19921;-85
2022/12/25 11:00:54;;;;;;;;;;;;;;;9.95;70.63;101902.06;5046019;28;19979;-85
2022/12/25 11:03:21;;;;;;;;;;;;;;;9.95;70.83;101899.47;5042217;28;20011;-85
2022/12/25 11:05:47;;;;;;;;;;;;;;;9.85;70.99;101903.06;5046132;28;19917;-84
2022/12/25 11:08:16;;;;;;;;;;;;;;;10.04;70.08;101909.69;5046424;28;19928;-84
2022/12/25 11:10:42;;;;;;;;;;;;;;;10.09;70.41;101914.44;5041509;28;19917;-84
2022/12/25 11:13:28;;;;;;;;;;;;;;;10.06;70.31;101915.91;5038576;28;19927;-84
2022/12/25 11:16:05;;;;;;;;;;;;;;;10.23;70.03;101906.72;5034576;28;20005;-85
2022/12/25 11:18:35;;;;;;;;;;;;;;;10.14;69.92;101907.88;5036260;28;19917;-83
2022/12/25 11:21:20;;;;;;;;;;;;;;;10.08;70.26;101914.34;5041624;28;20398;-83
2022/12/25 11:23:47;;;;;;;;;;;;;;;10.03;70.75;101919.19;5034264;28;19924;-83
2022/12/25 11:26:13;;;;;;;;;;;;;;;10.21;70.45;101913.53;5047403;28;19971;-84
2022/12/25 11:28:39;;;;;;;;;;;;;;;10.17;70.19;101912.41;5044008;28;19960;-84
2022/12/25 11:31:06;;;;;;;;;;;;;;;10.19;70.22;101911.69;5029065;28;19924;-84
2022/12/25 11:33:34;;;;;;;;;;;;;;;10.22;69.89;101911.00;5036415;28;19916;-84
2022/12/25 11:36:00;;;;;;;;;;;;;;;10.21;70.21;101913.53;5040174;28;20459;-84
2022/12/25 11:38:27;;;;;;;;;;;;;;;10.12;70.60;101925.13;5046563;28;19968;-84
2022/12/25 11:40:54;;;;;;;;;;;;;;;10.03;70.96;101919.19;5039045;28;19921;-84
2022/12/25 11:43:19;;;;;;;;;;;;;;;10.01;70.99;101915.56;5048047;28;19996;-84
2022/12/25 11:45:54;;;;;;;;;;;;;;;10.05;70.99;101916.69;5033283;28;19932;-84
2022/12/25 11:48:33;;;;;;;;;;;;;;;9.99;70.97;101920.69;5051309;28;20035;-83
2022/12/25 11:50:59;;;;;;;;;;;;;;;9.96;71.75;101924.75;5038865;28;20422;-83
2022/12/25 11:53:35;;;;;;;;;;;;;;;9.96;71.60;101937.78;5043356;28;19920;-85
2022/12/25 11:56:01;;;;;;;;;;;;;;;9.95;71.90;101936.91;5036213;28;20015;-84
2022/12/25 11:58:26;;;;;;;;;;;;;;;9.99;71.86;101943.28;5034986;28;20003;-84
2022/12/25 12:00:52;;;;;;;;;;;;;;;9.98;71.55;101941.44;5046038;28;20601;-84
2022/12/25 12:03:27;;;;;;;;;;;;;;;10.00;71.97;101945.06;5049981;28;19917;-84
2022/12/25 12:06:01;;;;;;;;;;;;;;;10.00;72.07;101945.06;5050132;28;20313;-83
2022/12/25 12:08:26;;;;;;;;;;;;;;;10.00;72.10;101945.06;5039183;28;19928;-84
2022/12/25 12:11:14;;;;;;;;;;;;;;;10.02;71.75;101951.31;5034198;28;19913;-84
2022/12/25 12:13:46;;;;;;;;;;;;;;;10.06;71.86;101950.75;5034802;28;19967;-84
2022/12/25 12:16:11;;;;;;;;;;;;;;;10.09;71.87;101953.56;5032190;28;20445;-84
2022/12/25 12:18:36;;;;;;;;;;;;;;;10.03;72.10;101955.72;5035265;28;20059;-84
2022/12/25 12:21:14;;;;;;;;;;;;;;;10.06;71.60;101948.13;5038451;28;20371;-83
2022/12/25 12:23:47;;;;;;;;;;;;;;;10.11;71.37;101954.59;5049318;28;20313;-81
2022/12/25 12:26:19;;;;;;;;;;;;;;;10.13;71.42;101953.00;5024324;28;20356;-82
2022/12/25 12:28:45;;;;;;;;;;;;;;;10.14;71.30;101954.84;5043738;28;19974;-79
2022/12/25 12:31:10;;;;;;;;;;;;;;;10.12;71.43;101958.13;5041696;28;19955;-81
2022/12/25 12:33:37;;;;;;;;;;;;;;;10.22;71.28;101962.31;5039373;28;19924;-84
2022/12/25 12:36:02;;;;;;;;;;;;;;;10.22;70.99;101958.00;5032370;28;19913;-81
2022/12/25 12:38:28;;;;;;;;;;;;;;;10.22;70.91;101962.31;5014446;28;19948;-82
2022/12/25 12:40:57;;;;;;;;;;;;;;;10.30;70.98;101966.44;5030433;28;19921;-83
2022/12/25 12:43:35;;;;;;;;;;;;;;;10.30;70.80;101974.28;5042604;28;19917;-83
2022/12/25 12:46:13;;;;;;;;;;;;;;;10.39;70.79;101972.34;5036286;28;20002;-83
2022/12/25 12:48:43;;;;;;;;;;;;;;;10.36;70.60;101974.75;5046745;28;20434;-84
2022/12/25 12:51:09;;;;;;;;;;;;;;;10.39;70.67;101991.56;5038018;28;19930;-83
2022/12/25 12:53:36;;;;;;;;;;;;;;;10.42;70.10;101993.47;5044212;28;19912;-83
2022/12/25 12:56:08;;;;;;;;;;;;;;;10.36;70.32;101995.63;5043799;28;19935;-83
2022/12/25 12:58:34;;;;;;;;;;;;;;;10.43;70.15;101992.66;5040804;28;20012;-84
2022/12/25 13:01:22;;;;;;;;;;;;;;;10.48;70.16;102003.47;5048149;28;19912;-84
2022/12/25 13:04:03;;;;;;;;;;;;;;;10.43;70.23;102016.19;5038627;28;19921;-85
2022/12/25 13:06:32;;;;;;;;;;;;;;;10.43;70.30;102010.94;5046504;28;20306;-85
2022/12/25 13:08:58;;;;;;;;;;;;;;;10.36;70.06;102011.31;5024632;28;19921;-84
2022/12/25 13:11:24;;;;;;;;;;;;;;;10.29;70.07;101990.72;5041754;28;19920;-83
2022/12/25 13:13:50;;;;;;;;;;;;;;;10.36;70.16;102006.97;5045163;28;19912;-85
2022/12/25 13:16:41;;;;;;;;;;;;;;;10.28;70.83;102017.63;5038343;28;19913;-84
2022/12/25 13:19:07;;;;;;;;;;;;;;;10.36;70.64;102026.97;5035315;28;19996;-85
2022/12/25 13:21:33;;;;;;;;;;;;;;;10.33;70.86;102021.53;5036195;28;19914;-85
2022/12/25 13:24:00;;;;;;;;;;;;;;;10.43;70.33;102031.84;5037851;28;19913;-85
2022/12/25 13:26:25;;;;;;;;;;;;;;;10.37;70.39;102027.09;5035236;28;19971;-83
2022/12/25 13:28:51;;;;;;;;;;;;;;;10.30;70.62;102030.00;5034502;28;19917;-83
2022/12/25 13:31:17;;;;;;;;;;;;;;;10.31;70.62;102039.69;5031418;28;20383;-86
2022/12/25 13:33:48;;;;;;;;;;;;;;;10.33;70.54;102035.50;5033422;28;20407;-86
2022/12/25 13:36:13;;;;;;;;;;;;;;;10.35;70.69;102038.19;5050478;28;19913;-86
2022/12/25 13:38:43;;;;;;;;;;;;;;;10.34;70.77;102037.28;5045069;28;19936;-86
2022/12/25 13:43:52;;;;;;;;;;;;;;;10.20;71.11;102043.13;5041720;28;20565;-86
2022/12/25 13:46:23;;;;;;;;;;;;;;;10.17;71.47;102046.44;5048635;28;19917;-86
2022/12/25 13:48:54;;;;;;;;;;;;;;;10.19;71.77;102038.72;5044609;28;20420;-86
2022/12/25 13:51:19;;;;;;;;;;;;;;;10.15;71.46;102047.09;5047050;28;19913;-86
2022/12/25 13:53:45;;;;;;;;;;;;;;;10.13;71.84;102048.69;5042373;28;19944;-85
2022/12/25 13:56:14;;;;;;;;;;;;;;;10.14;72.02;102048.81;5045339;28;20307;-85
2022/12/25 13:58:39;;;;;;;;;;;;;;;10.18;71.96;102053.47;5039264;28;19913;-85
2022/12/25 14:01:05;;;;;;;;;;;;;;;10.23;71.74;102047.69;5049155;28;19924;-84
2022/12/25 14:03:33;;;;;;;;;;;;;;;10.17;71.80;102061.19;5049273;28;19962;-86
2022/12/25 14:06:00;;;;;;;;;;;;;;;10.20;71.89;102066.63;5047895;28;19913;-85
2022/12/25 14:08:26;;;;;;;;;;;;;;;10.19;72.05;102070.94;5028581;28;19917;-85
2022/12/25 14:10:52;;;;;;;;;;;;;;;10.19;71.82;102077.88;5044061;28;19919;-86
2022/12/25 14:13:17;;;;;;;;;;;;;;;10.21;72.17;102080.59;5041104;28;19918;-86
2022/12/25 14:15:43;;;;;;;;;;;;;;;10.20;72.24;102077.06;5025116;28;19920;-86
2022/12/25 14:18:13;;;;;;;;;;;;;;;10.16;72.27;102083.78;5037127;28;19924;-86
2022/12/25 14:20:53;;;;;;;;;;;;;;;10.18;72.34;102078.66;5039406;28;19952;-83
2022/12/25 14:23:18;;;;;;;;;;;;;;;10.19;72.00;102083.09;5035281;28;19921;-84
2022/12/25 14:25:44;;;;;;;;;;;;;;;10.17;72.27;102082.97;5034809;28;19913;-84
2022/12/25 14:28:19;;;;;;;;;;;;;;;10.19;72.12;102094.44;5033356;28;19920;-84
2022/12/25 14:30:45;;;;;;;;;;;;;;;10.19;72.34;102094.44;5030717;28;19913;-86